Time;durP1;ratioP1;P1;durP2;ratioP2;P2;SDS_P1;SDS_P2;PMS_P1;PMS_P2;Temp;Humidity;BMP_temperature;BMP_pressure;BME280_temperature;BME280_humidity;BME280_pressure;Samples;Min_cycle;Max_cycle;Signal;HPM_P1;HPM_P2
2022/08/27 00:02:19;;;;;;;;;;;;;;;;;;;;;
2022/08/27 00:04:24;;;;;;;;;;;;;;;14.16;100.00;99485.47;6106459;22;19913;-90
2022/08/27 00:09:54;;;;;;;;;;;;;;;13.98;100.00;99476.81;6171191;23;19916;-89
2022/08/27 00:12:20;;;;;;;;;;;;;;;14.23;100.00;99479.75;6265332;22;19963;-88
2022/08/27 00:20:19;;;;;;;;;;;;;;;;;;;;;
2022/08/27 00:25:59;;;;;;;;;;;;;;;14.01;100.00;99478.44;6143717;23;19924;-89
2022/08/27 03:26:52;;;;;;;;;;;;;;;14.15;100.00;99410.97;6131188;22;19963;-90
2022/08/27 03:29:17;;;;;;;;;;;;;;;14.05;100.00;99413.34;6280109;22;19919;-90
2022/08/27 03:31:42;;;;;;;;;;;;;;;13.96;100.00;99414.81;6307760;22;19911;-92
2022/08/27 03:34:08;;;;;;;;;;;;;;;14.07;100.00;99415.91;6280677;22;19911;-90
2022/08/27 03:36:33;;;;;;;;;;;;;;;14.03;100.00;99422.41;6285778;22;20211;-96
2022/08/27 03:38:59;;;;;;;;;;;;;;;13.90;100.00;99417.00;6282991;22;19915;-94
2022/08/27 03:41:24;;;;;;;;;;;;;;;13.94;100.00;99430.00;6309837;22;19997;-95
2022/08/27 03:43:51;;;;;;;;;;;;;;;14.08;100.00;99422.97;6312220;22;20323;-94
2022/08/27 03:46:17;;;;;;;;;;;;;;;14.00;100.00;99426.13;6309210;22;19917;-91
2022/08/27 03:48:42;;;;;;;;;;;;;;;13.98;100.00;99433.34;6307706;22;19993;-91
2022/08/27 03:51:10;;;;;;;;;;;;;;;14.11;100.00;99425.44;6307566;22;20318;-95
2022/08/27 03:53:37;;;;;;;;;;;;;;;14.01;100.00;99430.50;6280009;22;20366;-90
2022/08/27 03:56:03;;;;;;;;;;;;;;;13.93;100.00;99430.13;6305984;22;20022;-94
2022/08/27 03:58:28;;;;;;;;;;;;;;;14.09;100.00;99430.03;6308047;22;20391;-92
2022/08/27 04:00:56;;;;;;;;;;;;;;;13.98;100.00;99423.53;6307523;22;19941;-91
2022/08/27 04:03:22;;;;;;;;;;;;;;;13.97;100.00;99424.47;6280053;22;20314;-87
2022/08/27 04:05:51;;;;;;;;;;;;;;;14.07;100.00;99422.13;6307191;22;19934;-87
2022/08/27 04:08:16;;;;;;;;;;;;;;;14.05;100.00;99417.84;6306972;22;19918;-87
2022/08/27 04:10:41;;;;;;;;;;;;;;;14.05;100.00;99418.69;6305849;22;20315;-87
2022/08/27 04:13:06;;;;;;;;;;;;;;;14.12;100.00;99420.03;6306602;22;19946;-89
2022/08/27 04:15:32;;;;;;;;;;;;;;;14.06;100.00;99414.22;6280077;22;19922;-91
2022/08/27 04:17:57;;;;;;;;;;;;;;;14.06;100.00;99419.56;6307091;22;19988;-89
2022/08/27 04:20:23;;;;;;;;;;;;;;;14.09;100.00;99416.69;6306943;22;19915;-86
2022/08/27 04:22:48;;;;;;;;;;;;;;;13.95;100.00;99417.56;6279858;22;19946;-85
2022/08/27 04:25:13;;;;;;;;;;;;;;;13.98;100.00;99412.88;6306719;22;19915;-86
2022/08/27 04:27:39;;;;;;;;;;;;;;;14.08;100.00;99410.50;6305374;22;19919;-85
2022/08/27 04:30:05;;;;;;;;;;;;;;;13.98;100.00;99418.22;6306748;22;19997;-87
2022/08/27 04:32:30;;;;;;;;;;;;;;;14.09;100.00;99414.03;6307150;22;19950;-89
2022/08/27 04:34:57;;;;;;;;;;;;;;;14.06;100.00;99415.06;6306853;22;19907;-88
2022/08/27 04:37:23;;;;;;;;;;;;;;;13.97;100.00;99407.66;6279261;22;20115;-89
2022/08/27 04:39:49;;;;;;;;;;;;;;;14.04;100.00;99417.00;6279765;22;19987;-89
2022/08/27 04:42:17;;;;;;;;;;;;;;;14.03;100.00;99409.94;6277820;22;20287;-88
2022/08/27 04:44:42;;;;;;;;;;;;;;;13.94;100.00;99408.69;6307158;22;19938;-89
2022/08/27 04:47:07;;;;;;;;;;;;;;;14.10;100.00;99415.72;6279497;22;19930;-90
2022/08/27 04:49:32;;;;;;;;;;;;;;;14.07;100.00;99411.47;6306545;22;19926;-89
2022/08/27 04:51:58;;;;;;;;;;;;;;;13.93;100.00;99408.81;6307022;22;19918;-87
2022/08/27 04:54:23;;;;;;;;;;;;;;;14.10;100.00;99408.59;6306569;22;20219;-90
2022/08/27 04:56:48;;;;;;;;;;;;;;;14.09;100.00;99408.72;6305286;22;19918;-92
2022/08/27 04:59:13;;;;;;;;;;;;;;;14.05;100.00;99412.50;6306890;22;19914;-90
2022/08/27 07:51:04;;;;;;;;;;;;;;;14.06;100.00;99456.84;6176727;22;20237;-90
2022/08/27 07:53:29;;;;;;;;;;;;;;;14.04;100.00;99466.72;6249564;22;19916;-88
2022/08/27 07:58:20;;;;;;;;;;;;;;;14.13;100.00;99469.66;6307153;22;19918;-92
2022/08/27 08:00:45;;;;;;;;;;;;;;;14.17;100.00;99470.34;6280309;22;19911;-90
2022/08/27 08:03:13;;;;;;;;;;;;;;;14.23;100.00;99475.31;6280706;22;19915;-91
2022/08/27 08:05:45;;;;;;;;;;;;;;;14.17;100.00;99473.88;6279437;22;19915;-92
2022/08/27 08:08:11;;;;;;;;;;;;;;;14.10;100.00;99471.69;6280013;22;19911;-90
2022/08/27 08:10:37;;;;;;;;;;;;;;;14.21;100.00;99474.53;6280863;22;20380;-90
2022/08/27 08:13:02;;;;;;;;;;;;;;;14.04;100.00;99466.72;6281512;22;20276;-87
2022/08/27 08:15:28;;;;;;;;;;;;;;;13.93;100.00;99473.59;6280938;22;19911;-93
2022/08/27 08:17:53;;;;;;;;;;;;;;;14.09;100.00;99481.47;6281145;22;20333;-91
2022/08/27 08:20:19;;;;;;;;;;;;;;;14.01;100.00;99477.56;6280367;22;19911;-93
2022/08/27 08:22:44;;;;;;;;;;;;;;;14.06;100.00;99473.69;6308755;22;19915;-89
2022/08/27 08:25:10;;;;;;;;;;;;;;;14.19;100.00;99476.44;6281200;22;19915;-93
2022/08/27 08:27:35;;;;;;;;;;;;;;;14.11;100.00;99473.41;6308350;22;19911;-93
2022/08/27 08:30:00;;;;;;;;;;;;;;;14.03;100.00;99478.34;6281056;22;19926;-90
2022/08/27 08:32:26;;;;;;;;;;;;;;;14.16;100.00;99477.47;6281255;22;19911;-92
2022/08/27 08:34:51;;;;;;;;;;;;;;;14.05;100.00;99481.75;6280020;22;19911;-94
2022/08/27 08:37:17;;;;;;;;;;;;;;;13.93;100.00;99473.59;6308601;22;19915;-91
2022/08/27 08:39:42;;;;;;;;;;;;;;;14.11;100.00;99478.72;6280769;22;20618;-91
2022/08/27 08:42:18;;;;;;;;;;;;;;;14.04;100.00;99482.72;6308145;22;19957;-92
2022/08/27 08:44:48;;;;;;;;;;;;;;;13.97;100.00;99487.56;6274169;22;19927;-91
2022/08/27 08:47:25;;;;;;;;;;;;;;;14.12;100.00;99485.75;6275235;22;19958;-91
2022/08/27 08:49:53;;;;;;;;;;;;;;;14.09;100.00;99483.31;6299951;22;20036;-87
2022/08/27 08:52:31;;;;;;;;;;;;;;;13.96;100.00;99486.72;6275103;22;20615;-89
2022/08/27 08:55:05;;;;;;;;;;;;;;;14.08;100.00;99489.56;6300036;22;20243;-87
2022/08/27 08:57:35;;;;;;;;;;;;;;;14.10;100.00;99495.66;6300154;22;19915;-89
2022/08/27 09:00:11;;;;;;;;;;;;;;;14.02;100.00;99489.94;6300732;22;20246;-89
2022/08/27 09:02:37;;;;;;;;;;;;;;;14.06;100.00;99492.31;6276011;22;19911;-87
2022/08/27 09:05:04;;;;;;;;;;;;;;;14.07;100.00;99490.50;6299211;22;19911;-88
2022/08/27 09:07:37;;;;;;;;;;;;;;;13.93;100.00;99497.56;6276389;22;19965;-87
2022/08/27 09:10:21;;;;;;;;;;;;;;;13.97;100.00;99499.06;6299781;22;19968;-87
2022/08/27 09:12:47;;;;;;;;;;;;;;;14.07;100.00;99488.72;6275627;22;19911;-90
2022/08/27 09:15:20;;;;;;;;;;;;;;;13.96;100.00;99493.81;6300192;22;19915;-87
2022/08/27 09:17:47;;;;;;;;;;;;;;;13.91;100.00;99491.47;6300222;22;19915;-87
2022/08/27 09:20:25;;;;;;;;;;;;;;;14.09;100.00;99493.97;6275351;22;19964;-92
2022/08/27 09:22:56;;;;;;;;;;;;;;;14.02;100.00;99495.28;6299713;22;19915;-88
2022/08/27 09:25:35;;;;;;;;;;;;;;;13.91;100.00;99495.94;6275857;22;19939;-89
2022/08/27 09:31:23;;;;;;;;;;;;;;;14.08;100.00;99494.91;6212777;23;19919;-88
2022/08/27 09:33:48;;;;;;;;;;;;;;;13.98;100.00;99487.47;6212471;23;20106;-88
2022/08/27 09:36:15;;;;;;;;;;;;;;;13.95;100.00;99492.97;6243590;22;19915;-88
2022/08/27 09:39:02;;;;;;;;;;;;;;;14.10;100.00;99496.50;6277863;22;19937;-88
2022/08/27 09:41:47;;;;;;;;;;;;;;;13.98;100.00;99502.59;6302328;22;19918;-86
2022/08/27 09:44:15;;;;;;;;;;;;;;;13.92;100.00;99503.81;6249289;22;19916;-90
2022/08/27 09:46:50;;;;;;;;;;;;;;;14.06;100.00;99494.16;6151773;23;19935;-87
2022/08/27 09:49:18;;;;;;;;;;;;;;;14.06;100.00;99494.16;6150801;23;19991;-87
2022/08/27 09:51:44;;;;;;;;;;;;;;;13.94;100.00;99493.06;6255402;22;20287;-92
2022/08/27 09:54:22;;;;;;;;;;;;;;;14.05;100.00;99498.59;6152540;23;19924;-87
2022/08/27 09:56:48;;;;;;;;;;;;;;;14.10;100.00;99499.16;6254796;22;19923;-87
2022/08/27 09:59:34;;;;;;;;;;;;;;;13.96;100.00;99496.50;6255401;22;19913;-89
2022/08/27 10:02:14;;;;;;;;;;;;;;;13.94;100.00;99504.56;6151994;23;20328;-87
2022/08/27 10:04:45;;;;;;;;;;;;;;;14.13;100.00;99495.47;6150600;23;19917;-89
2022/08/27 10:07:21;;;;;;;;;;;;;;;13.99;100.00;99494.53;6280989;22;19917;-86
2022/08/27 10:09:51;;;;;;;;;;;;;;;13.96;100.00;99500.03;6152299;23;19912;-86
2022/08/27 10:12:29;;;;;;;;;;;;;;;13.94;100.00;99495.75;6255307;22;19913;-87
2022/08/27 10:14:57;;;;;;;;;;;;;;;14.07;100.00;99495.84;6152084;23;19913;-91
2022/08/27 10:17:45;;;;;;;;;;;;;;;14.00;100.00;99484.72;6151934;23;19919;-87
2022/08/27 10:20:29;;;;;;;;;;;;;;;13.94;100.00;99493.91;6138205;22;19917;-88
2022/08/27 10:23:20;;;;;;;;;;;;;;;14.01;100.00;99496.22;6151590;23;19916;-86
2022/08/27 10:26:14;;;;;;;;;;;;;;;14.16;100.00;99496.13;6222821;23;20346;-87
2022/08/27 10:29:15;;;;;;;;;;;;;;;14.15;100.00;99498.88;6218269;23;19915;-85
2022/08/27 10:31:51;;;;;;;;;;;;;;;14.18;100.00;99504.03;6095394;23;19914;-86
2022/08/27 10:34:32;;;;;;;;;;;;;;;14.06;100.00;99502.13;6221442;23;19937;-87
2022/08/27 10:37:12;;;;;;;;;;;;;;;13.97;100.00;99498.22;6243982;23;20386;-89
2022/08/27 10:40:24;;;;;;;;;;;;;;;;;;;;;
2022/08/27 10:42:55;;;;;;;;;;;;;;;14.04;100.00;99501.34;6094825;23;20041;-89
2022/08/27 10:45:23;;;;;;;;;;;;;;;14.04;100.00;99498.69;6228782;23;19920;-90
2022/08/27 10:47:51;;;;;;;;;;;;;;;13.92;100.00;99502.97;6218204;23;19967;-86
2022/08/27 10:50:22;;;;;;;;;;;;;;;13.96;100.00;99500.03;6221539;22;19913;-90
2022/08/27 10:52:52;;;;;;;;;;;;;;;14.04;100.00;99493.38;6151824;23;20324;-90
2022/08/27 10:55:22;;;;;;;;;;;;;;;13.95;100.00;99500.97;6151983;23;20274;-87
2022/08/27 10:58:03;;;;;;;;;;;;;;;13.76;100.00;99503.91;6168803;22;19923;-88
2022/08/27 11:00:40;;;;;;;;;;;;;;;13.90;100.00;99503.06;6280848;22;20327;-88
2022/08/27 11:03:25;;;;;;;;;;;;;;;13.90;100.00;99502.22;6280763;22;19998;-87
2022/08/27 11:05:50;;;;;;;;;;;;;;;13.92;100.00;99502.97;6305170;22;19937;-86
2022/08/27 11:08:38;;;;;;;;;;;;;;;13.77;100.00;99499.44;6280519;22;20319;-88
2022/08/27 11:25:45;;;;;;;;;;;;;;;13.36;100.00;99489.47;6299010;22;19957;-89
2022/08/27 11:28:44;;;;;;;;;;;;;;;13.38;100.00;99483.09;6308567;22;19990;-90
2022/08/27 11:31:21;;;;;;;;;;;;;;;13.53;100.00;99485.78;6303541;22;19942;-87
2022/08/27 11:33:56;;;;;;;;;;;;;;;13.18;100.00;99481.59;6280309;22;20326;-91
2022/08/27 11:36:36;;;;;;;;;;;;;;;12.98;100.00;99479.22;6281348;22;20002;-90
2022/08/27 11:39:30;;;;;;;;;;;;;;;12.83;100.00;99486.28;6280279;22;19972;-87
2022/08/27 11:41:55;;;;;;;;;;;;;;;12.87;100.00;99479.84;6275717;22;19911;-86
2022/08/27 11:44:23;;;;;;;;;;;;;;;12.88;100.00;99479.75;6307650;22;19911;-87
2022/08/27 11:46:53;;;;;;;;;;;;;;;12.85;100.00;99479.06;6280207;22;19918;-88
2022/08/27 11:49:33;;;;;;;;;;;;;;;12.67;100.00;99475.66;6306318;22;19998;-91
2022/08/27 11:52:02;;;;;;;;;;;;;;;12.83;100.00;99473.84;6307800;22;19949;-92
2022/08/27 11:54:30;;;;;;;;;;;;;;;12.70;100.00;99475.47;6307789;22;19922;-93
2022/08/27 11:56:59;;;;;;;;;;;;;;;12.60;100.00;99471.63;6308620;22;19960;-90
2022/08/27 11:59:31;;;;;;;;;;;;;;;12.78;100.00;99475.03;6308112;22;20285;-92
2022/08/27 12:02:10;;;;;;;;;;;;;;;12.71;100.00;99471.88;6280386;22;20261;-92
2022/08/27 12:04:36;;;;;;;;;;;;;;;12.62;100.00;99477.72;6279110;22;19915;-90
2022/08/27 12:07:15;;;;;;;;;;;;;;;12.69;100.00;99473.78;6307432;22;19917;-93
2022/08/27 12:10:04;;;;;;;;;;;;;;;12.79;100.00;99474.09;6280388;22;20272;-93
2022/08/27 12:12:45;;;;;;;;;;;;;;;12.74;100.00;99468.19;6261416;22;19925;-90
2022/08/27 12:15:37;;;;;;;;;;;;;;;12.65;100.00;99474.88;6307471;22;19956;-92
2022/08/27 12:18:16;;;;;;;;;;;;;;;12.72;100.00;99470.94;6279914;22;19911;-88
2022/08/27 12:20:52;;;;;;;;;;;;;;;12.94;100.00;99477.69;6305804;22;19918;-89
2022/08/27 12:23:43;;;;;;;;;;;;;;;12.88;100.00;99468.28;6307301;22;20250;-90
2022/08/27 12:26:15;;;;;;;;;;;;;;;12.82;100.00;99463.28;6305311;22;20319;-92
2022/08/27 12:28:40;;;;;;;;;;;;;;;12.80;100.00;99466.03;6307095;22;19911;-91
2022/08/27 12:31:06;;;;;;;;;;;;;;;13.02;100.00;99464.78;6306884;22;20599;-90
2022/08/27 12:33:44;;;;;;;;;;;;;;;12.87;100.00;99471.84;6305851;22;19936;-92
2022/08/27 12:36:18;;;;;;;;;;;;;;;12.78;100.00;99465.28;6307027;22;20330;-90
2022/08/27 12:38:49;;;;;;;;;;;;;;;13.02;100.00;99465.66;6307115;22;19956;-90
2022/08/27 12:41:43;;;;;;;;;;;;;;;12.96;100.00;99457.19;6307335;22;19911;-93
2022/08/27 12:44:09;;;;;;;;;;;;;;;12.89;100.00;99457.53;6273696;22;19965;-92
2022/08/27 12:46:51;;;;;;;;;;;;;;;12.78;100.00;99461.75;6279811;22;19918;-87
2022/08/27 12:49:22;;;;;;;;;;;;;;;12.99;100.00;99454.34;6278656;22;20323;-88
2022/08/27 12:51:47;;;;;;;;;;;;;;;13.00;100.00;99456.06;6306595;22;19911;-88
2022/08/27 12:54:19;;;;;;;;;;;;;;;12.90;100.00;99461.91;6307381;22;20238;-94
2022/08/27 12:56:44;;;;;;;;;;;;;;;12.92;100.00;99453.84;6307022;22;19996;-94
2022/08/27 12:59:42;;;;;;;;;;;;;;;13.11;100.00;99445.63;6307144;22;20473;-93
2022/08/27 13:02:26;;;;;;;;;;;;;;;13.04;100.00;99457.59;6223322;22;19911;-95
2022/08/27 13:04:52;;;;;;;;;;;;;;;12.95;100.00;99452.81;6278538;22;19922;-92
2022/08/27 13:07:25;;;;;;;;;;;;;;;13.01;100.00;99455.13;6279673;22;19914;-94
2022/08/27 13:09:50;;;;;;;;;;;;;;;13.15;100.00;99454.31;6307028;22;19998;-91
2022/08/27 13:12:18;;;;;;;;;;;;;;;12.99;100.00;99449.88;6307001;22;19944;-93
2022/08/27 13:14:43;;;;;;;;;;;;;;;12.90;100.00;99445.94;6273756;22;19982;-92
2022/08/27 13:17:09;;;;;;;;;;;;;;;13.17;100.00;99445.28;6276413;22;19911;-94
2022/08/27 13:19:51;;;;;;;;;;;;;;;13.05;100.00;99444.22;6273426;22;19911;-90
2022/08/27 13:22:37;;;;;;;;;;;;;;;12.96;100.00;99442.09;6276102;22;19947;-92
2022/08/27 13:25:03;;;;;;;;;;;;;;;12.97;100.00;99440.28;6300596;22;19923;-94
2022/08/27 13:27:30;;;;;;;;;;;;;;;13.16;100.00;99438.28;6300683;22;20338;-90
2022/08/27 13:29:59;;;;;;;;;;;;;;;12.99;100.00;99439.25;6299956;22;19961;-94
2022/08/27 13:32:26;;;;;;;;;;;;;;;12.89;100.00;99438.94;6275774;22;19974;-92
2022/08/27 13:34:52;;;;;;;;;;;;;;;13.15;100.00;99435.69;6273105;22;20285;-94
2022/08/27 13:37:40;;;;;;;;;;;;;;;13.05;100.00;99430.03;6276075;22;19965;-92
2022/08/27 13:40:06;;;;;;;;;;;;;;;12.96;100.00;99438.59;6257887;22;19915;-92
2022/08/27 13:42:32;;;;;;;;;;;;;;;13.04;100.00;99431.84;6275785;22;19941;-87
2022/08/27 13:45:01;;;;;;;;;;;;;;;13.14;100.00;99440.16;6275476;22;19911;-88
2022/08/27 13:47:28;;;;;;;;;;;;;;;13.01;100.00;99431.19;6275720;22;19912;-87
2022/08/27 13:50:04;;;;;;;;;;;;;;;12.97;100.00;99425.19;6298451;22;19911;-90
2022/08/27 13:54:11;;;;;;;;;;;;;;;13.19;100.00;99430.06;6275693;22;19988;-88
2022/08/27 13:55:35;;;;;;;;;;;;;;;13.15;100.00;99431.22;6275586;22;19914;-92
2022/08/27 13:58:11;;;;;;;;;;;;;;;13.05;100.00;99422.94;6274125;22;19991;-93
2022/08/27 14:00:36;;;;;;;;;;;;;;;13.00;100.00;99432.13;6299936;22;20269;-88
2022/08/27 14:03:02;;;;;;;;;;;;;;;13.23;100.00;99428.97;6275141;22;19911;-87
2022/08/27 14:05:29;;;;;;;;;;;;;;;13.06;100.00;99421.97;6272738;22;20310;-92
2022/08/27 14:08:16;;;;;;;;;;;;;;;13.03;100.00;99423.97;6275515;22;19946;-91
2022/08/27 14:11:00;;;;;;;;;;;;;;;13.23;100.00;99423.66;6275364;22;19912;-86
2022/08/27 14:13:27;;;;;;;;;;;;;;;13.18;100.00;99428.38;6300305;22;19940;-90
2022/08/27 14:15:57;;;;;;;;;;;;;;;13.03;100.00;99429.28;6178358;22;19917;-89
2022/08/27 14:18:29;;;;;;;;;;;;;;;13.11;100.00;99428.84;6151106;23;20324;-87
2022/08/27 14:20:55;;;;;;;;;;;;;;;13.23;100.00;99422.78;6281097;22;20347;-91
2022/08/27 14:23:22;;;;;;;;;;;;;;;13.09;100.00;99423.59;6151487;23;20291;-88
2022/08/27 14:25:48;;;;;;;;;;;;;;;13.12;100.00;99422.59;6151383;23;20296;-87
2022/08/27 14:28:13;;;;;;;;;;;;;;;13.25;100.00;99429.72;6280957;22;19955;-91
2022/08/27 14:30:39;;;;;;;;;;;;;;;13.13;100.00;99429.59;6216661;22;19980;-94
2022/08/27 14:33:04;;;;;;;;;;;;;;;13.14;100.00;99432.16;6306845;22;19918;-92
2022/08/27 14:35:31;;;;;;;;;;;;;;;13.24;100.00;99429.81;6279301;22;19907;-91
2022/08/27 14:38:00;;;;;;;;;;;;;;;13.14;100.00;99423.34;6280731;22;19919;-88
2022/08/27 14:40:25;;;;;;;;;;;;;;;13.12;100.00;99426.09;6308127;22;19934;-91
2022/08/27 14:42:51;;;;;;;;;;;;;;;13.27;100.00;99432.28;6281051;22;19914;-89
2022/08/27 14:45:17;;;;;;;;;;;;;;;13.14;100.00;99431.31;6281173;22;19911;-90
2022/08/27 14:47:42;;;;;;;;;;;;;;;13.19;100.00;99435.41;6281123;22;20329;-92
2022/08/27 14:50:09;;;;;;;;;;;;;;;13.31;100.00;99433.00;6279240;22;19922;-88
2022/08/27 14:52:35;;;;;;;;;;;;;;;13.19;100.00;99430.06;6280699;22;20266;-89
2022/08/27 14:55:04;;;;;;;;;;;;;;;13.11;100.00;99432.34;6307732;22;19915;-94
2022/08/27 14:57:30;;;;;;;;;;;;;;;13.36;100.00;99433.59;6308091;22;19990;-88
2022/08/27 14:59:58;;;;;;;;;;;;;;;13.18;100.00;99428.38;6280519;22;19935;-93
2022/08/27 15:02:23;;;;;;;;;;;;;;;13.23;100.00;99426.31;6280348;22;19943;-91
2022/08/27 15:04:53;;;;;;;;;;;;;;;13.33;100.00;99428.44;6306485;22;19922;-89
2022/08/27 15:07:19;;;;;;;;;;;;;;;13.17;100.00;99426.66;6308172;22;20398;-88
2022/08/27 15:09:45;;;;;;;;;;;;;;;13.19;100.00;99435.41;6307407;22;19938;-90
2022/08/27 15:12:13;;;;;;;;;;;;;;;13.35;100.00;99430.06;6307633;22;19997;-89
2022/08/27 15:14:38;;;;;;;;;;;;;;;13.20;100.00;99437.13;6308105;22;20322;-89
2022/08/27 15:17:05;;;;;;;;;;;;;;;13.24;100.00;99432.47;6307587;22;19911;-88
2022/08/27 15:19:31;;;;;;;;;;;;;;;13.34;100.00;99423.03;6306535;22;19914;-91
2022/08/27 15:22:04;;;;;;;;;;;;;;;13.18;100.00;99431.06;6307698;22;20223;-91
2022/08/27 15:24:36;;;;;;;;;;;;;;;13.26;100.00;99426.13;6307980;22;19931;-90
2022/08/27 15:27:01;;;;;;;;;;;;;;;13.34;100.00;99427.47;6273258;22;20239;-89
2022/08/27 15:29:27;;;;;;;;;;;;;;;13.20;100.00;99426.47;6270993;22;19915;-89
2022/08/27 15:37:22;;;;;;;;;;;;;;;13.22;100.00;99424.56;6306231;22;20322;-88
2022/08/27 15:39:48;;;;;;;;;;;;;;;13.13;100.00;99421.63;6280163;22;19915;-92
2022/08/27 15:42:13;;;;;;;;;;;;;;;13.41;100.00;99420.88;6305707;22;19956;-88
2022/08/27 15:45:29;;;;;;;;;;;;;;;;;;;;;
2022/08/27 15:47:55;;;;;;;;;;;;;;;13.22;100.00;99413.94;6306995;22;19990;-92
2022/08/27 15:50:21;;;;;;;;;;;;;;;13.20;100.00;99417.66;6306177;22;19953;-86
2022/08/27 15:52:48;;;;;;;;;;;;;;;13.38;100.00;99413.91;6307668;22;19911;-87
2022/08/27 15:55:24;;;;;;;;;;;;;;;13.22;100.00;99419.25;6307098;22;19910;-92
2022/08/27 15:57:50;;;;;;;;;;;;;;;13.21;100.00;99422.00;6307393;22;19918;-87
2022/08/27 16:00:16;;;;;;;;;;;;;;;13.36;100.00;99414.97;6307503;22;19911;-86
2022/08/27 16:02:42;;;;;;;;;;;;;;;13.25;100.00;99413.75;6279673;22;20413;-87
2022/08/27 16:05:09;;;;;;;;;;;;;;;13.14;100.00;99410.88;6305979;22;19918;-89
2022/08/27 16:07:34;;;;;;;;;;;;;;;13.39;100.00;99414.78;6306701;22;19911;-87
2022/08/27 16:10:00;;;;;;;;;;;;;;;13.24;100.00;99406.75;6305703;22;19973;-89
2022/08/27 16:18:30;;;;;;;;;;;;;;;13.36;100.00;99406.97;6306410;22;20399;-89
2022/08/27 16:20:56;;;;;;;;;;;;;;;13.22;100.00;99402.44;6306657;22;20345;-88
2022/08/27 16:23:22;;;;;;;;;;;;;;;13.14;100.00;99405.56;6306300;22;19914;-87
2022/08/27 16:26:18;;;;;;;;;;;;;;;13.36;100.00;99406.97;6280028;22;19922;-91
2022/08/27 16:28:41;;;;;;;;;;;;;;;13.31;100.00;99406.38;6305076;22;19987;-87
2022/08/27 16:31:07;;;;;;;;;;;;;;;13.21;100.00;99412.25;6306044;22;19954;-90
2022/08/27 16:33:39;;;;;;;;;;;;;;;13.28;100.00;99407.41;6306119;22;19937;-87
2022/08/27 16:36:05;;;;;;;;;;;;;;;13.37;100.00;99406.00;6280337;22;19911;-89
2022/08/27 16:38:30;;;;;;;;;;;;;;;13.20;100.00;99409.69;6306856;22;20275;-87
2022/08/27 16:41:14;;;;;;;;;;;;;;;13.17;100.00;99408.03;6278427;22;19993;-86
2022/08/27 16:43:39;;;;;;;;;;;;;;;13.39;100.00;99404.13;6305667;22;20338;-87
2022/08/27 16:46:10;;;;;;;;;;;;;;;13.31;100.00;99401.91;6279810;22;19918;-87
2022/08/27 16:51:32;;;;;;;;;;;;;;;13.31;100.00;99395.75;6306833;22;20002;-89
2022/08/27 16:54:00;;;;;;;;;;;;;;;13.35;100.00;99399.94;6279608;22;19925;-89
2022/08/27 16:56:25;;;;;;;;;;;;;;;13.24;100.00;99401.41;6306802;22;19910;-89
2022/08/27 16:58:51;;;;;;;;;;;;;;;13.17;100.00;99402.72;6307084;22;19953;-85
2022/08/27 17:01:18;;;;;;;;;;;;;;;13.38;100.00;99399.75;6306762;22;20283;-92
2022/08/27 17:03:45;;;;;;;;;;;;;;;13.26;100.00;99406.66;6305341;22;20601;-91
2022/08/27 17:06:14;;;;;;;;;;;;;;;13.14;100.00;99402.91;6306634;22;20036;-86
2022/08/27 17:08:44;;;;;;;;;;;;;;;13.37;100.00;99401.56;6279209;22;19911;-91
2022/08/27 17:14:12;;;;;;;;;;;;;;;13.22;100.00;99413.09;6268733;22;19911;-86
2022/08/27 17:16:40;;;;;;;;;;;;;;;13.20;100.00;99415.00;6306206;22;19942;-91
2022/08/27 17:19:05;;;;;;;;;;;;;;;13.36;100.00;99417.63;6278327;22;19914;-87
2022/08/27 17:21:35;;;;;;;;;;;;;;;13.22;100.00;99418.41;6279917;22;19986;-88
2022/08/27 17:24:04;;;;;;;;;;;;;;;13.12;100.00;99420.78;6279369;22;20327;-86
2022/08/27 17:26:30;;;;;;;;;;;;;;;13.38;100.00;99415.72;6306406;22;19918;-88
2022/08/27 17:28:55;;;;;;;;;;;;;;;13.24;100.00;99417.38;6306992;22;19921;-87
2022/08/27 17:31:22;;;;;;;;;;;;;;;13.11;100.00;99416.38;6279270;22;19911;-91
2022/08/27 17:33:53;;;;;;;;;;;;;;;13.38;100.00;99418.38;6277509;22;19911;-89
2022/08/27 17:36:19;;;;;;;;;;;;;;;13.27;100.00;99421.66;6307512;22;19922;-92
2022/08/27 17:38:46;;;;;;;;;;;;;;;13.15;100.00;99428.56;6280495;22;19911;-87
2022/08/27 17:41:14;;;;;;;;;;;;;;;13.42;100.00;99431.41;6305247;22;19915;-88
2022/08/27 17:43:44;;;;;;;;;;;;;;;13.32;100.00;99429.34;6280513;22;20298;-88
2022/08/27 17:46:12;;;;;;;;;;;;;;;13.16;100.00;99440.06;6307901;22;19933;-87
2022/08/27 17:48:40;;;;;;;;;;;;;;;13.33;100.00;99436.44;6278127;22;19957;-88
2022/08/27 17:51:11;;;;;;;;;;;;;;;13.33;100.00;99431.13;6300361;22;19926;-88
2022/08/27 17:53:37;;;;;;;;;;;;;;;13.19;100.00;99437.22;6281327;22;19918;-86
2022/08/27 17:56:02;;;;;;;;;;;;;;;13.26;100.00;99430.59;6278984;22;19919;-88
2022/08/27 18:04:25;;;;;;;;;;;;;;;13.23;100.00;99446.75;6271797;22;20006;-93
2022/08/27 18:06:51;;;;;;;;;;;;;;;13.24;100.00;99444.00;6276671;22;19965;-90
2022/08/27 18:09:17;;;;;;;;;;;;;;;13.32;100.00;99445.31;6250566;22;19918;-88
2022/08/27 18:11:43;;;;;;;;;;;;;;;15.22;100.00;99442.22;6250847;22;20242;-90
2022/08/27 18:14:29;;;;;;;;;;;;;;;14.31;100.00;99457.00;6176156;23;19921;-89
2022/08/27 18:17:07;;;;;;;;;;;;;;;;;;;;;
2022/08/27 18:19:33;;;;;;;;;;;;;;;13.87;100.00;99463.31;6091513;23;19992;-91
2022/08/27 18:21:59;;;;;;;;;;;;;;;13.69;100.00;99473.28;6115353;23;20352;-89
2022/08/27 18:24:24;;;;;;;;;;;;;;;13.56;100.00;99470.50;6093127;23;20000;-90
2022/08/27 18:26:49;;;;;;;;;;;;;;;13.74;100.00;99465.03;6091695;23;20267;-89
2022/08/27 18:29:18;;;;;;;;;;;;;;;13.62;100.00;99469.28;6092682;23;20313;-90
2022/08/27 18:31:43;;;;;;;;;;;;;;;13.47;100.00;99480.84;6092904;23;19918;-88
2022/08/27 18:34:08;;;;;;;;;;;;;;;13.68;100.00;99476.03;6091083;23;19992;-89
2022/08/27 18:36:33;;;;;;;;;;;;;;;13.55;100.00;99484.75;6121598;22;19923;-88
2022/08/27 18:41:59;;;;;;;;;;;;;;;13.51;100.00;99482.38;6274707;22;19965;-88
2022/08/27 18:44:25;;;;;;;;;;;;;;;13.65;100.00;99495.72;6250934;22;19914;-88
2022/08/27 18:49:15;;;;;;;;;;;;;;;13.43;100.00;99501.44;6275156;22;19923;-84
2022/08/27 18:52:03;;;;;;;;;;;;;;;13.58;100.00;99499.69;6249767;22;19915;-87
2022/08/27 18:54:28;;;;;;;;;;;;;;;13.49;100.00;99509.06;6247305;22;20239;-90
2022/08/27 18:57:04;;;;;;;;;;;;;;;13.30;100.00;99508.41;6277170;22;19994;-91
2022/08/27 18:59:59;;;;;;;;;;;;;;;13.52;100.00;99510.72;6275475;22;19919;-88
2022/08/27 19:02:31;;;;;;;;;;;;;;;13.51;100.00;99512.50;6245999;22;19912;-90
2022/08/27 19:04:56;;;;;;;;;;;;;;;13.41;100.00;99516.66;6249153;22;19923;-88
2022/08/27 19:07:22;;;;;;;;;;;;;;;13.43;100.00;99517.41;6276267;22;19911;-90
2022/08/27 19:09:47;;;;;;;;;;;;;;;13.57;100.00;99513.94;6250500;22;20331;-88
2022/08/27 19:12:13;;;;;;;;;;;;;;;13.43;100.00;99520.06;6249886;22;19982;-91
2022/08/27 19:14:42;;;;;;;;;;;;;;;13.35;100.00;99525.00;6276553;22;19940;-88
2022/08/27 19:19:50;;;;;;;;;;;;;;;13.44;100.00;99525.31;6266954;22;19964;-88
2022/08/27 19:22:15;;;;;;;;;;;;;;;13.27;100.00;99517.44;6248566;22;19986;-92
2022/08/27 19:24:41;;;;;;;;;;;;;;;13.55;100.00;99522.03;6250326;22;19922;-89
2022/08/27 19:27:06;;;;;;;;;;;;;;;13.47;100.00;99529.59;6276479;22;20366;-87
2022/08/27 19:29:31;;;;;;;;;;;;;;;13.31;100.00;99536.75;6277119;22;20231;-93
2022/08/27 19:31:57;;;;;;;;;;;;;;;13.48;100.00;99541.94;6249057;22;19911;-90
2022/08/27 19:34:24;;;;;;;;;;;;;;;13.44;100.00;99541.28;6276582;22;20316;-87
2022/08/27 19:36:49;;;;;;;;;;;;;;;13.26;100.00;99543.19;6276958;22;20407;-91
2022/08/27 19:39:15;;;;;;;;;;;;;;;13.47;100.00;99542.91;6277578;22;19946;-90
2022/08/27 19:42:10;;;;;;;;;;;;;;;13.33;100.00;99541.06;6277353;22;19912;-93
2022/08/27 19:44:49;;;;;;;;;;;;;;;13.31;100.00;99544.75;6247153;22;20250;-90
2022/08/27 19:47:15;;;;;;;;;;;;;;;13.38;100.00;99544.28;6250120;22;19915;-91
2022/08/27 19:49:45;;;;;;;;;;;;;;;13.49;100.00;99550.81;6250658;22;19923;-89
2022/08/27 19:52:10;;;;;;;;;;;;;;;13.34;100.00;99549.88;6278792;22;19922;-91